sensor_id;sensor_type;location;lat;lon;timestamp;P1;durP1;ratioP1;P2;durP2;ratioP2
31686;SDS011;18285;51.330;4.946;2023-08-20T00:39:16;1.52;;;1.20;;
31686;SDS011;18285;51.330;4.946;2023-08-20T01:03:27;1.38;;;0.80;;
31686;SDS011;18285;51.330;4.946;2023-08-20T01:27:42;1.60;;;1.00;;
31686;SDS011;18285;51.330;4.946;2023-08-20T01:51:55;1.98;;;0.85;;
31686;SDS011;18285;51.330;4.946;2023-08-20T02:16:05;1.10;;;0.90;;
31686;SDS011;18285;51.330;4.946;2023-08-20T02:40:16;1.87;;;0.90;;
31686;SDS011;18285;51.330;4.946;2023-08-20T03:04:27;1.70;;;0.85;;
31686;SDS011;18285;51.330;4.946;2023-08-20T03:28:39;1.30;;;0.90;;
31686;SDS011;18285;51.330;4.946;2023-08-20T03:52:49;0.77;;;0.70;;
31686;SDS011;18285;51.330;4.946;2023-08-20T04:17:00;1.63;;;0.90;;
31686;SDS011;18285;51.330;4.946;2023-08-20T04:41:10;0.65;;;0.60;;
31686;SDS011;18285;51.330;4.946;2023-08-20T05:05:21;0.90;;;0.68;;
31686;SDS011;18285;51.330;4.946;2023-08-20T05:29:32;0.88;;;0.70;;
31686;SDS011;18285;51.330;4.946;2023-08-20T05:53:43;0.80;;;0.70;;
31686;SDS011;18285;51.330;4.946;2023-08-20T06:17:53;0.88;;;0.70;;
31686;SDS011;18285;51.330;4.946;2023-08-20T06:42:04;1.77;;;0.73;;
31686;SDS011;18285;51.330;4.946;2023-08-20T07:06:15;0.60;;;0.52;;
31686;SDS011;18285;51.330;4.946;2023-08-20T07:30:28;0.50;;;0.40;;
31686;SDS011;18285;51.330;4.946;2023-08-20T07:54:39;0.60;;;0.57;;
31686;SDS011;18285;51.330;4.946;2023-08-20T08:18:50;3.67;;;0.80;;
31686;SDS011;18285;51.330;4.946;2023-08-20T08:43:00;10.80;;;2.70;;
31686;SDS011;18285;51.330;4.946;2023-08-20T09:07:13;7.15;;;1.90;;
31686;SDS011;18285;51.330;4.946;2023-08-20T09:31:36;5.30;;;1.60;;
31686;SDS011;18285;51.330;4.946;2023-08-20T09:55:48;3.60;;;1.50;;
31686;SDS011;18285;51.330;4.946;2023-08-20T10:20:03;3.42;;;1.15;;
31686;SDS011;18285;51.330;4.946;2023-08-20T10:44:14;2.65;;;0.93;;
31686;SDS011;18285;51.330;4.946;2023-08-20T11:08:26;1.13;;;0.70;;
31686;SDS011;18285;51.330;4.946;2023-08-20T11:32:37;2.95;;;1.02;;
31686;SDS011;18285;51.330;4.946;2023-08-20T11:56:49;10.97;;;2.23;;
31686;SDS011;18285;51.330;4.946;2023-08-20T12:21:01;18.73;;;7.40;;
31686;SDS011;18285;51.330;4.946;2023-08-20T12:45:12;11.73;;;5.40;;
31686;SDS011;18285;51.330;4.946;2023-08-20T13:09:23;11.60;;;4.37;;
31686;SDS011;18285;51.330;4.946;2023-08-20T13:33:34;6.47;;;3.65;;
31686;SDS011;18285;51.330;4.946;2023-08-20T13:57:45;7.15;;;3.05;;
31686;SDS011;18285;51.330;4.946;2023-08-20T14:21:55;4.78;;;2.92;;
31686;SDS011;18285;51.330;4.946;2023-08-20T14:46:06;4.25;;;1.90;;
31686;SDS011;18285;51.330;4.946;2023-08-20T15:10:17;8.35;;;2.60;;
31686;SDS011;18285;51.330;4.946;2023-08-20T15:34:28;5.17;;;2.10;;
31686;SDS011;18285;51.330;4.946;2023-08-20T15:58:39;5.90;;;1.98;;
31686;SDS011;18285;51.330;4.946;2023-08-20T16:22:49;11.45;;;3.92;;
31686;SDS011;18285;51.330;4.946;2023-08-20T16:47:00;8.43;;;3.95;;
31686;SDS011;18285;51.330;4.946;2023-08-20T17:11:11;4.97;;;1.60;;
31686;SDS011;18285;51.330;4.946;2023-08-20T17:35:22;8.27;;;3.65;;
31686;SDS011;18285;51.330;4.946;2023-08-20T17:59:32;6.47;;;3.72;;
31686;SDS011;18285;51.330;4.946;2023-08-20T18:23:43;4.90;;;3.38;;
31686;SDS011;18285;51.330;4.946;2023-08-20T18:47:54;6.28;;;2.85;;
31686;SDS011;18285;51.330;4.946;2023-08-20T19:12:04;4.50;;;2.13;;
31686;SDS011;18285;51.330;4.946;2023-08-20T19:36:15;6.38;;;2.60;;
31686;SDS011;18285;51.330;4.946;2023-08-20T20:00:26;3.50;;;1.67;;
31686;SDS011;18285;51.330;4.946;2023-08-20T20:24:37;3.70;;;1.40;;
31686;SDS011;18285;51.330;4.946;2023-08-20T20:48:49;2.13;;;1.27;;
31686;SDS011;18285;51.330;4.946;2023-08-20T21:12:59;2.13;;;1.17;;
31686;SDS011;18285;51.330;4.946;2023-08-20T21:37:12;3.15;;;1.23;;
31686;SDS011;18285;51.330;4.946;2023-08-20T22:01:23;2.43;;;1.20;;
31686;SDS011;18285;51.330;4.946;2023-08-20T22:25:33;1.47;;;0.80;;
31686;SDS011;18285;51.330;4.946;2023-08-20T22:49:44;1.20;;;0.90;;
31686;SDS011;18285;51.330;4.946;2023-08-20T23:13:55;1.13;;;0.85;;
31686;SDS011;18285;51.330;4.946;2023-08-20T23:38:06;2.03;;;1.05;;
